createdAt,value
2022-12-31T00:02:26.025Z,3.58
2022-12-31T00:04:54.661Z,3.51
2022-12-31T00:07:21.309Z,3.58
2022-12-31T00:09:48.036Z,3.59
2022-12-31T00:12:14.688Z,3.54
2022-12-31T00:14:41.427Z,3.55
2022-12-31T00:17:08.201Z,3.46
2022-12-31T00:19:34.935Z,3.41
2022-12-31T00:22:01.669Z,3.60
2022-12-31T00:24:31.230Z,3.36
2022-12-31T00:26:58.013Z,3.35
2022-12-31T00:29:24.792Z,3.45
2022-12-31T00:31:51.506Z,3.36
2022-12-31T00:34:18.171Z,3.30
2022-12-31T00:36:46.104Z,3.36
2022-12-31T00:39:13.061Z,3.46
2022-12-31T00:41:39.867Z,3.48
2022-12-31T00:44:06.744Z,3.49
2022-12-31T00:46:33.564Z,3.45
2022-12-31T00:49:00.354Z,3.45
2022-12-31T00:51:30.044Z,3.41
2022-12-31T00:53:57.735Z,3.36
2022-12-31T00:56:27.618Z,3.33
2022-12-31T00:58:54.463Z,3.29
2022-12-31T01:01:22.743Z,3.20
2022-12-31T01:03:52.703Z,3.28
2022-12-31T01:06:19.697Z,3.20
2022-12-31T01:08:49.238Z,3.14
2022-12-31T01:11:29.152Z,3.13
2022-12-31T01:13:59.539Z,3.19
2022-12-31T01:16:32.441Z,3.17
2022-12-31T01:19:04.849Z,3.11
2022-12-31T01:21:33.258Z,3.15
2022-12-31T01:24:00.243Z,3.10
2022-12-31T01:26:27.718Z,3.10
2022-12-31T01:28:54.808Z,3.10
2022-12-31T01:31:23.082Z,3.12
2022-12-31T01:33:53.168Z,3.10
2022-12-31T01:36:26.588Z,3.03
2022-12-31T01:38:58.581Z,3.03
2022-12-31T01:41:32.803Z,3.13
2022-12-31T01:44:03.883Z,3.05
2022-12-31T01:46:39.370Z,3.03
2022-12-31T01:49:27.930Z,3.02
2022-12-31T01:52:02.554Z,2.94
2022-12-31T01:54:33.577Z,3.00
2022-12-31T01:57:00.721Z,2.92
2022-12-31T01:59:28.938Z,2.94
2022-12-31T02:01:56.291Z,3.00
2022-12-31T02:04:25.132Z,2.96
2022-12-31T02:07:08.087Z,2.93
2022-12-31T02:09:38.427Z,2.96
2022-12-31T02:12:07.115Z,2.92
2022-12-31T02:14:39.165Z,2.85
2022-12-31T02:17:21.655Z,2.77
2022-12-31T02:19:57.502Z,2.79
2022-12-31T02:23:03.856Z,2.72
2022-12-31T02:25:49.405Z,2.62
2022-12-31T02:28:46.969Z,2.51
2022-12-31T02:31:20.687Z,2.47
2022-12-31T02:34:09.390Z,2.39
2022-12-31T02:36:40.636Z,2.34
2022-12-31T02:39:10.166Z,2.47
2022-12-31T02:41:52.130Z,2.43
2022-12-31T02:44:24.546Z,2.37
2022-12-31T02:47:13.775Z,2.42
2022-12-31T02:49:49.375Z,2.41
2022-12-31T02:52:46.306Z,2.31
2022-12-31T02:55:31.776Z,2.24
2022-12-31T02:58:43.444Z,2.19
2022-12-31T03:01:29.438Z,2.24
2022-12-31T03:04:16.243Z,2.18
2022-12-31T03:06:43.429Z,2.19
2022-12-31T03:09:13.060Z,2.10
2022-12-31T03:11:58.573Z,2.09
2022-12-31T03:14:25.337Z,2.04
2022-12-31T03:16:51.985Z,2.03
2022-12-31T03:19:37.359Z,2.03
2022-12-31T03:22:24.395Z,2.02
2022-12-31T03:25:09.899Z,1.92
2022-12-31T03:27:36.721Z,1.89
2022-12-31T03:30:04.750Z,1.84
2022-12-31T03:32:31.613Z,1.88
2022-12-31T03:34:58.377Z,1.81
2022-12-31T03:37:25.207Z,1.75
2022-12-31T03:39:51.974Z,1.76
2022-12-31T03:42:18.724Z,1.77
2022-12-31T03:44:45.373Z,1.75
2022-12-31T03:47:12.085Z,1.86
2022-12-31T03:49:38.761Z,1.87
2022-12-31T03:52:06.516Z,1.84
2022-12-31T03:54:33.290Z,1.81
2022-12-31T03:57:00.542Z,1.78
2022-12-31T03:59:27.293Z,1.76
2022-12-31T04:01:54.116Z,1.76
2022-12-31T04:04:21.046Z,1.71
2022-12-31T04:06:48.196Z,1.69
2022-12-31T04:09:14.810Z,1.66
2022-12-31T04:11:41.715Z,1.62
2022-12-31T04:14:08.395Z,1.62
2022-12-31T04:16:35.117Z,1.58
2022-12-31T04:19:03.083Z,1.54
2022-12-31T04:21:34.794Z,1.46
2022-12-31T04:24:02.713Z,1.41
2022-12-31T04:26:29.983Z,1.34
2022-12-31T04:28:57.062Z,1.32
2022-12-31T04:31:23.859Z,1.33
2022-12-31T04:33:50.810Z,1.29
2022-12-31T04:36:17.552Z,1.21
2022-12-31T04:38:44.317Z,1.17
2022-12-31T04:41:17.052Z,1.15
2022-12-31T04:43:47.019Z,1.15
2022-12-31T04:46:14.574Z,1.13
2022-12-31T04:48:41.957Z,1.15
2022-12-31T04:51:08.669Z,1.16
2022-12-31T04:53:35.738Z,1.16
2022-12-31T04:56:02.528Z,1.13
2022-12-31T04:58:29.422Z,1.11
2022-12-31T05:00:56.613Z,1.14
2022-12-31T05:03:25.258Z,1.23
2022-12-31T05:05:52.743Z,1.24
2022-12-31T05:08:20.738Z,1.30
2022-12-31T05:10:49.291Z,1.34
2022-12-31T05:13:16.512Z,1.30
2022-12-31T05:15:43.434Z,1.20
2022-12-31T05:18:10.111Z,1.20
2022-12-31T05:20:36.969Z,1.23
2022-12-31T05:23:04.055Z,1.22
2022-12-31T05:25:31.621Z,1.24
2022-12-31T05:27:58.268Z,1.30
2022-12-31T05:30:25.473Z,1.28
2022-12-31T05:32:52.567Z,1.23
2022-12-31T05:35:19.372Z,1.18
2022-12-31T05:37:46.138Z,1.11
2022-12-31T05:40:13.530Z,1.08
2022-12-31T05:42:40.215Z,1.01
2022-12-31T05:45:07.497Z,0.98
2022-12-31T05:47:34.247Z,0.94
2022-12-31T05:50:00.980Z,0.91
2022-12-31T05:52:27.648Z,0.86
2022-12-31T05:54:54.401Z,0.77
2022-12-31T05:57:21.140Z,0.68
2022-12-31T05:59:47.890Z,0.69
2022-12-31T06:02:14.587Z,0.56
2022-12-31T06:04:41.410Z,0.55
2022-12-31T06:07:08.583Z,0.45
2022-12-31T06:09:35.278Z,0.36
2022-12-31T06:12:02.142Z,0.28
2022-12-31T06:14:28.776Z,0.28
2022-12-31T06:16:55.475Z,0.25
2022-12-31T06:19:22.183Z,0.26
2022-12-31T06:21:49.330Z,0.28
2022-12-31T06:24:16.104Z,0.25
2022-12-31T06:26:42.861Z,0.26
2022-12-31T06:29:10.424Z,0.28
2022-12-31T06:31:37.531Z,0.29
2022-12-31T06:34:04.529Z,0.32
2022-12-31T06:36:31.253Z,0.28
2022-12-31T06:38:59.422Z,0.29
2022-12-31T06:41:26.266Z,0.14
2022-12-31T06:43:53.834Z,0.05
2022-12-31T06:46:20.548Z,-0.03
2022-12-31T06:48:47.464Z,-0.08
2022-12-31T06:51:17.815Z,-0.08
2022-12-31T06:53:49.633Z,-0.04
2022-12-31T06:56:31.395Z,-0.04
2022-12-31T06:59:00.655Z,-0.07
2022-12-31T07:01:59.091Z,-0.09
2022-12-31T07:04:58.579Z,-0.09
2022-12-31T07:07:25.316Z,-0.05
2022-12-31T07:10:07.358Z,-0.03
2022-12-31T07:12:52.796Z,-0.01
2022-12-31T07:16:04.398Z,-0.01
2022-12-31T07:18:38.635Z,-0.04
2022-12-31T07:21:13.152Z,-0.10
2022-12-31T07:23:41.209Z,-0.19
2022-12-31T07:26:34.195Z,-0.33
2022-12-31T07:29:22.058Z,-0.39
2022-12-31T07:32:33.456Z,-0.48
2022-12-31T07:35:27.321Z,-0.56
2022-12-31T07:38:32.130Z,-0.62
2022-12-31T07:41:10.008Z,-0.65
2022-12-31T07:43:56.530Z,-0.66
2022-12-31T07:46:40.375Z,-0.71
2022-12-31T07:49:12.837Z,-0.71
2022-12-31T07:51:40.474Z,-0.74
2022-12-31T07:54:13.401Z,-0.77
2022-12-31T07:56:41.241Z,-0.83
2022-12-31T07:59:45.502Z,-0.76
2022-12-31T08:02:33.491Z,-0.59
2022-12-31T08:05:16.378Z,-0.60
2022-12-31T08:08:23.504Z,-0.72
2022-12-31T08:10:56.338Z,-0.83
2022-12-31T08:13:23.178Z,-0.86
2022-12-31T08:15:50.154Z,-0.90
2022-12-31T08:18:17.783Z,-0.92
2022-12-31T08:21:02.545Z,-0.93
2022-12-31T08:23:59.319Z,-0.93
2022-12-31T08:26:37.573Z,-0.99
2022-12-31T08:29:06.728Z,-0.96
2022-12-31T08:32:12.092Z,-0.98
2022-12-31T08:34:45.582Z,-0.97
2022-12-31T08:38:04.892Z,-0.96
2022-12-31T08:40:46.157Z,-0.98
2022-12-31T08:43:27.827Z,-1.00
2022-12-31T08:45:56.788Z,-0.98
2022-12-31T08:48:43.851Z,-0.94
2022-12-31T08:51:19.042Z,-0.90
2022-12-31T08:53:46.261Z,-0.88
2022-12-31T08:56:48.778Z,-0.75
2022-12-31T08:59:22.873Z,-0.67
2022-12-31T09:01:49.653Z,-0.63
2022-12-31T09:04:29.106Z,-0.62
2022-12-31T09:07:03.059Z,-0.62
2022-12-31T09:09:33.259Z,-0.63
2022-12-31T09:12:15.273Z,-0.64
2022-12-31T09:14:48.803Z,-0.63
2022-12-31T09:17:39.995Z,-0.60
2022-12-31T09:20:13.877Z,-0.57
2022-12-31T09:22:40.930Z,-0.55
2022-12-31T09:25:12.383Z,-0.51
2022-12-31T09:27:51.711Z,-0.36
2022-12-31T09:30:19.052Z,-0.24
2022-12-31T09:33:04.771Z,-0.17
2022-12-31T09:36:03.666Z,-0.07
2022-12-31T09:38:55.015Z,0.01
2022-12-31T09:41:45.695Z,0.03
2022-12-31T09:44:30.942Z,0.14
2022-12-31T09:47:28.545Z,0.23
2022-12-31T09:50:23.661Z,0.33
2022-12-31T09:53:18.962Z,0.49
2022-12-31T09:55:49.922Z,0.60
2022-12-31T09:58:31.033Z,0.67
2022-12-31T10:01:06.962Z,0.69
2022-12-31T10:03:59.061Z,0.74
2022-12-31T10:06:52.318Z,0.74
2022-12-31T10:09:25.027Z,0.79
2022-12-31T10:12:00.540Z,0.81
2022-12-31T10:14:48.976Z,0.78
2022-12-31T10:17:23.459Z,0.86
2022-12-31T10:20:16.451Z,0.88
2022-12-31T10:23:08.400Z,0.95
2022-12-31T10:25:39.673Z,0.96
2022-12-31T10:28:30.163Z,0.91
2022-12-31T10:31:27.388Z,0.90
2022-12-31T10:34:27.109Z,0.87
2022-12-31T10:36:55.629Z,0.85
2022-12-31T10:39:37.678Z,0.84
2022-12-31T10:42:36.299Z,0.83
2022-12-31T10:45:22.912Z,0.88
2022-12-31T10:48:16.811Z,0.95
2022-12-31T10:50:58.579Z,0.97
2022-12-31T10:54:05.393Z,1.02
2022-12-31T10:56:50.331Z,1.05
2022-12-31T10:59:34.604Z,1.17
2022-12-31T11:02:38.825Z,1.23
2022-12-31T11:05:23.747Z,1.26
2022-12-31T11:08:02.777Z,1.29
2022-12-31T11:10:38.340Z,1.30
2022-12-31T11:13:38.681Z,1.35
2022-12-31T11:16:29.594Z,1.37
2022-12-31T11:19:01.962Z,1.33
2022-12-31T11:21:47.228Z,1.34
2022-12-31T11:24:33.825Z,1.30
2022-12-31T11:27:22.017Z,1.25
2022-12-31T11:30:03.670Z,1.24
2022-12-31T11:32:41.850Z,1.18
2022-12-31T11:35:22.567Z,1.16
2022-12-31T11:38:17.793Z,1.14
2022-12-31T11:40:48.405Z,1.24
2022-12-31T11:43:34.581Z,1.30
2022-12-31T11:46:10.457Z,1.30
2022-12-31T11:48:52.980Z,1.25
2022-12-31T11:51:19.729Z,1.15
2022-12-31T11:54:25.175Z,1.19
2022-12-31T11:56:58.475Z,1.26
2022-12-31T11:59:25.152Z,1.31
2022-12-31T12:02:00.836Z,1.23
2022-12-31T12:04:28.228Z,1.23
2022-12-31T12:06:55.043Z,1.16
2022-12-31T12:09:31.228Z,1.04
2022-12-31T12:12:01.149Z,0.93
2022-12-31T12:14:32.947Z,0.96
2022-12-31T12:17:04.671Z,0.95
2022-12-31T12:22:26.623Z,1.06
2022-12-31T12:25:08.108Z,1.09
2022-12-31T12:27:36.206Z,1.12
2022-12-31T12:30:19.494Z,1.12
2022-12-31T12:32:58.085Z,1.05
2022-12-31T12:35:36.703Z,0.91
2022-12-31T12:38:13.754Z,0.81
2022-12-31T12:40:41.015Z,0.81
2022-12-31T12:43:22.630Z,0.82
2022-12-31T12:45:52.341Z,0.88
2022-12-31T12:48:30.794Z,0.96
2022-12-31T12:50:59.260Z,0.95
2022-12-31T12:53:35.125Z,0.89
2022-12-31T12:56:30.644Z,0.92
2022-12-31T12:59:27.952Z,0.92
2022-12-31T13:02:08.531Z,0.94
2022-12-31T13:05:03.427Z,0.93
2022-12-31T13:07:59.120Z,0.94
2022-12-31T13:10:47.339Z,0.93
2022-12-31T13:13:24.594Z,0.91
2022-12-31T13:16:23.873Z,0.88
2022-12-31T13:19:09.289Z,0.91
2022-12-31T13:21:39.453Z,0.90
2022-12-31T13:24:24.894Z,0.88
2022-12-31T13:27:22.440Z,0.90
2022-12-31T13:29:49.613Z,0.86
2022-12-31T13:32:28.117Z,0.80
2022-12-31T13:35:01.712Z,0.75
2022-12-31T13:37:41.973Z,0.69
2022-12-31T13:40:21.195Z,0.56
2022-12-31T13:43:14.689Z,0.50
2022-12-31T13:45:45.505Z,0.40
2022-12-31T13:48:18.839Z,0.29
2022-12-31T13:51:00.508Z,0.18
2022-12-31T13:53:36.593Z,0.12
2022-12-31T13:56:11.100Z,0.09
2022-12-31T13:58:57.672Z,0.02
2022-12-31T14:01:33.848Z,-0.04
2022-12-31T14:04:18.331Z,-0.11
2022-12-31T14:07:11.367Z,-0.06
2022-12-31T14:09:38.359Z,-0.06
2022-12-31T14:12:05.002Z,-0.08
2022-12-31T14:14:48.944Z,-0.03
2022-12-31T14:17:23.577Z,-0.01
2022-12-31T14:20:07.388Z,0.04
2022-12-31T14:23:03.000Z,0.04
2022-12-31T14:25:47.991Z,-0.03
2022-12-31T14:28:47.070Z,-0.09
2022-12-31T14:31:46.300Z,-0.12
2022-12-31T14:34:24.632Z,-0.14
2022-12-31T14:37:06.461Z,-0.18
2022-12-31T14:40:00.369Z,-0.20
2022-12-31T14:42:46.798Z,-0.06
2022-12-31T14:45:25.609Z,-0.13
2022-12-31T14:48:04.353Z,-0.08
2022-12-31T14:50:33.894Z,-0.09
2022-12-31T14:53:03.467Z,-0.14
2022-12-31T14:55:33.767Z,-0.14
2022-12-31T14:58:28.922Z,-0.18
2022-12-31T15:01:19.921Z,-0.19
2022-12-31T15:03:51.793Z,-0.23
2022-12-31T15:06:33.183Z,-0.29
2022-12-31T15:09:15.003Z,-0.33
2022-12-31T15:12:06.500Z,-0.36
2022-12-31T15:14:37.438Z,-0.35
2022-12-31T15:17:15.409Z,-0.34
2022-12-31T15:20:01.440Z,-0.31
2022-12-31T15:22:33.977Z,-0.33
2022-12-31T15:25:01.204Z,-0.31
2022-12-31T15:27:35.806Z,-0.29
2022-12-31T15:30:04.981Z,-0.31
2022-12-31T15:32:35.167Z,-0.32
2022-12-31T15:35:20.975Z,-0.34
2022-12-31T15:38:15.626Z,-0.34
2022-12-31T15:40:50.677Z,-0.40
2022-12-31T15:43:43.445Z,-0.44
2022-12-31T15:46:18.688Z,-0.38
2022-12-31T15:49:01.948Z,-0.45
2022-12-31T15:51:41.681Z,-0.42
2022-12-31T15:54:23.153Z,-0.49
2022-12-31T15:56:51.416Z,-0.52
2022-12-31T15:59:20.454Z,-0.50
2022-12-31T16:01:47.961Z,-0.53
2022-12-31T16:04:33.510Z,-0.59
2022-12-31T16:07:03.451Z,-0.63
2022-12-31T16:09:35.989Z,-0.66
2022-12-31T16:12:10.089Z,-0.69
2022-12-31T16:14:40.545Z,-0.74
2022-12-31T16:17:20.711Z,-0.67
2022-12-31T16:19:47.760Z,-0.66
2022-12-31T16:22:24.828Z,-0.72
2022-12-31T16:25:38.869Z,-0.74
2022-12-31T16:27:43.626Z,-0.74
2022-12-31T16:30:25.623Z,-0.70
2022-12-31T16:32:55.912Z,-0.57
2022-12-31T16:35:31.353Z,-0.59
2022-12-31T16:38:13.658Z,-0.65
2022-12-31T16:40:42.876Z,-0.68
2022-12-31T16:43:25.022Z,-0.64
2022-12-31T16:45:52.361Z,-0.67
2022-12-31T16:48:21.050Z,-0.69
2022-12-31T16:50:52.757Z,-0.72
2022-12-31T16:53:24.998Z,-0.72
2022-12-31T16:55:56.783Z,-0.67
2022-12-31T16:58:37.372Z,-0.69
2022-12-31T17:01:28.013Z,-0.69
2022-12-31T17:03:59.891Z,-0.65
2022-12-31T17:06:28.442Z,-0.63
2022-12-31T17:09:00.870Z,-0.68
2022-12-31T17:11:33.183Z,-0.77
2022-12-31T17:14:05.906Z,-0.87
2022-12-31T17:16:34.373Z,-0.92
2022-12-31T17:19:01.404Z,-0.96
2022-12-31T17:21:31.172Z,-0.96
2022-12-31T17:24:06.322Z,-1.05
2022-12-31T17:26:37.386Z,-1.08
2022-12-31T17:29:05.946Z,-1.10
2022-12-31T17:31:34.560Z,-1.00
2022-12-31T17:34:18.008Z,-1.02
2022-12-31T17:37:13.047Z,-0.98
2022-12-31T17:39:45.943Z,-0.95
2022-12-31T17:42:15.505Z,-0.92
2022-12-31T17:44:44.350Z,-0.91
2022-12-31T17:47:14.078Z,-0.93
2022-12-31T17:49:45.024Z,-0.93
2022-12-31T17:52:15.776Z,-0.92
2022-12-31T17:54:43.054Z,-0.96
2022-12-31T17:57:24.091Z,-0.93
2022-12-31T17:59:50.947Z,-0.94
2022-12-31T18:02:17.829Z,-0.89
2022-12-31T18:04:47.218Z,-0.85
2022-12-31T18:07:13.890Z,-0.79
2022-12-31T18:09:40.604Z,-0.80
2022-12-31T18:12:08.353Z,-0.82
2022-12-31T18:14:35.165Z,-0.74
2022-12-31T18:17:01.969Z,-0.75
2022-12-31T18:22:16.612Z,-0.65
2022-12-31T18:24:44.549Z,-0.65
2022-12-31T18:27:18.888Z,-0.58
2022-12-31T18:29:46.769Z,-0.66
2022-12-31T18:32:23.584Z,-0.72
2022-12-31T18:34:50.731Z,-0.76
2022-12-31T18:37:22.099Z,-0.74
2022-12-31T18:39:49.432Z,-0.75
2022-12-31T18:42:18.301Z,-0.74
2022-12-31T18:44:45.566Z,-0.77
2022-12-31T18:47:17.314Z,-0.82
2022-12-31T18:49:45.113Z,-0.90
2022-12-31T18:52:17.386Z,-0.93
2022-12-31T18:54:44.395Z,-0.96
2022-12-31T18:57:12.288Z,-0.93
2022-12-31T18:59:39.434Z,-0.91
2022-12-31T19:02:14.505Z,-0.88
2022-12-31T19:04:41.311Z,-0.88
2022-12-31T19:07:07.953Z,-0.86
2022-12-31T19:09:54.572Z,-0.88
2022-12-31T19:12:21.445Z,-0.81
2022-12-31T19:14:48.144Z,-0.83
2022-12-31T19:17:14.802Z,-0.84
2022-12-31T19:19:41.536Z,-0.78
2022-12-31T19:22:15.067Z,-0.70
2022-12-31T19:24:41.763Z,-0.68
2022-12-31T19:27:09.833Z,-0.69
2022-12-31T19:29:36.552Z,-0.65
2022-12-31T19:32:03.238Z,-0.68
2022-12-31T19:34:29.939Z,-0.73
2022-12-31T19:36:56.594Z,-0.73
2022-12-31T19:39:23.273Z,-0.78
2022-12-31T19:41:56.549Z,-0.76
2022-12-31T19:44:25.736Z,-0.69
2022-12-31T19:46:52.649Z,-0.64
2022-12-31T19:49:19.334Z,-0.58
2022-12-31T19:51:46.125Z,-0.55
2022-12-31T19:54:13.426Z,-0.54
2022-12-31T19:56:40.160Z,-0.51
2022-12-31T19:59:09.535Z,-0.50
2022-12-31T20:01:36.556Z,-0.44
2022-12-31T20:04:03.541Z,-0.43
2022-12-31T20:06:30.238Z,-0.43
2022-12-31T20:08:56.997Z,-0.39
2022-12-31T20:11:24.504Z,-0.37
2022-12-31T20:13:54.906Z,-0.40
2022-12-31T20:16:24.700Z,-0.41
2022-12-31T20:18:51.563Z,-0.43
2022-12-31T20:21:24.360Z,-0.38
2022-12-31T20:23:52.118Z,-0.39
2022-12-31T20:26:20.623Z,-0.40
2022-12-31T20:28:47.598Z,-0.38
2022-12-31T20:31:21.390Z,-0.39
2022-12-31T20:33:48.332Z,-0.38
2022-12-31T20:36:17.027Z,-0.36
2022-12-31T20:38:44.335Z,-0.30
2022-12-31T20:41:14.710Z,-0.30
2022-12-31T20:43:41.863Z,-0.30
2022-12-31T20:46:15.645Z,-0.28
2022-12-31T20:48:44.216Z,-0.30
2022-12-31T20:51:11.452Z,-0.35
2022-12-31T20:53:38.426Z,-0.35
2022-12-31T20:56:09.665Z,-0.37
2022-12-31T20:58:36.376Z,-0.31
2022-12-31T21:01:06.761Z,-0.33
2022-12-31T21:04:05.061Z,-0.32
2022-12-31T21:06:26.234Z,-0.29
2022-12-31T21:08:54.935Z,-0.25
2022-12-31T21:11:40.255Z,-0.25
2022-12-31T21:14:07.211Z,-0.22
2022-12-31T21:16:34.071Z,-0.15
2022-12-31T21:19:01.635Z,-0.19
2022-12-31T21:21:28.596Z,-0.21
2022-12-31T21:23:55.497Z,-0.13
2022-12-31T21:26:22.164Z,-0.12
2022-12-31T21:28:48.863Z,-0.08
2022-12-31T21:31:16.816Z,-0.05
2022-12-31T21:33:45.288Z,0.04
2022-12-31T21:36:12.538Z,0.12
2022-12-31T21:38:39.802Z,0.11
2022-12-31T21:41:08.007Z,0.16
2022-12-31T21:43:35.147Z,0.20
2022-12-31T21:46:04.466Z,0.24
2022-12-31T21:48:32.027Z,0.23
2022-12-31T21:51:10.019Z,0.22
2022-12-31T21:53:37.478Z,0.28
2022-12-31T21:56:08.349Z,0.35
2022-12-31T21:58:40.469Z,0.37
2022-12-31T22:01:28.628Z,0.47
2022-12-31T22:03:55.483Z,0.45
2022-12-31T22:06:24.005Z,0.46
2022-12-31T22:08:53.736Z,0.56
2022-12-31T22:11:22.727Z,0.64
2022-12-31T22:13:49.768Z,0.65
2022-12-31T22:16:18.527Z,0.65
2022-12-31T22:18:45.229Z,0.51
2022-12-31T22:21:20.048Z,0.46
2022-12-31T22:23:52.363Z,0.65
2022-12-31T22:26:21.651Z,0.81
2022-12-31T22:28:48.524Z,0.65
2022-12-31T22:31:21.696Z,0.67
2022-12-31T22:33:48.985Z,0.63
2022-12-31T22:36:18.231Z,0.56
2022-12-31T22:38:45.230Z,0.56
2022-12-31T22:41:14.806Z,0.58
2022-12-31T22:43:44.565Z,0.76
2022-12-31T22:46:18.653Z,0.78
2022-12-31T22:48:45.631Z,0.79
2022-12-31T22:51:13.382Z,0.64
2022-12-31T22:53:41.329Z,0.67
2022-12-31T22:56:09.385Z,0.66
2022-12-31T22:58:36.394Z,0.40
2022-12-31T23:01:14.318Z,0.40
2022-12-31T23:07:32.456Z,0.54
2022-12-31T23:15:45.193Z,0.56
2022-12-31T23:18:38.644Z,0.56
2022-12-31T23:21:28.897Z,0.46
2022-12-31T23:23:55.642Z,0.44
2022-12-31T23:26:22.296Z,0.40
2022-12-31T23:28:49.045Z,0.42
2022-12-31T23:31:15.740Z,0.44
2022-12-31T23:33:42.440Z,0.41
2022-12-31T23:36:09.429Z,0.48
2022-12-31T23:38:36.208Z,0.47
2022-12-31T23:41:12.183Z,0.53
2022-12-31T23:43:38.871Z,0.49
2022-12-31T23:46:05.625Z,0.46
2022-12-31T23:48:32.360Z,0.56
2022-12-31T23:50:59.253Z,0.48
2022-12-31T23:53:26.138Z,0.49
2022-12-31T23:55:53.202Z,0.52
2022-12-31T23:58:21.205Z,0.50
